Terminal Aerodrome Forecast
Issued by NWS Jackson, KY

Home | Current Version | Previous Version | Text Only | Print | Product List | Glossary On
Versions: 1 2 3 4 5 6 7 8 9 10 11 12 13 14 15 16 17 18 19
000
FTUS43 KJKL 251306 AAB
TAFLOZ
TAF AMD
KLOZ 251306Z 2513/2612 03004KT P6SM BKN006
      TEMPO 2513/2516 BKN020
     FM251600 01006KT P6SM SCT035
     FM260200 VRB03KT P6SM FEW200=

USA.gov is the U.S. government's official web portal to all federal, state and local government web resources and services.